sensor_id;sensor_type;location;lat;lon;timestamp;P1;durP1;ratioP1;P2;durP2;ratioP2
70832;SDS011;58452;59.418;17.962;2022-10-31T00:01:26;10.20;;;3.70;;
70832;SDS011;58452;59.418;17.962;2022-10-31T00:03:54;13.70;;;3.67;;
70832;SDS011;58452;59.418;17.962;2022-10-31T00:06:20;9.88;;;3.67;;
70832;SDS011;58452;59.418;17.962;2022-10-31T00:08:46;7.95;;;4.05;;
70832;SDS011;58452;59.418;17.962;2022-10-31T00:11:16;11.23;;;3.28;;
70832;SDS011;58452;59.418;17.962;2022-10-31T00:13:42;5.15;;;3.15;;
70832;SDS011;58452;59.418;17.962;2022-10-31T00:16:13;7.30;;;3.10;;
70832;SDS011;58452;59.418;17.962;2022-10-31T00:18:42;6.22;;;2.80;;
70832;SDS011;58452;59.418;17.962;2022-10-31T00:21:08;5.55;;;2.90;;
70832;SDS011;58452;59.418;17.962;2022-10-31T00:23:33;7.32;;;3.17;;
70832;SDS011;58452;59.418;17.962;2022-10-31T00:26:02;8.60;;;2.92;;
70832;SDS011;58452;59.418;17.962;2022-10-31T00:28:28;7.70;;;2.88;;
70832;SDS011;58452;59.418;17.962;2022-10-31T00:30:58;6.13;;;2.85;;
70832;SDS011;58452;59.418;17.962;2022-10-31T00:33:27;6.85;;;3.33;;
70832;SDS011;58452;59.418;17.962;2022-10-31T00:35:53;10.82;;;2.90;;
70832;SDS011;58452;59.418;17.962;2022-10-31T00:38:18;4.75;;;2.30;;
70832;SDS011;58452;59.418;17.962;2022-10-31T00:40:44;7.70;;;3.55;;
70832;SDS011;58452;59.418;17.962;2022-10-31T00:43:09;6.63;;;2.80;;
70832;SDS011;58452;59.418;17.962;2022-10-31T00:45:34;5.93;;;2.60;;
70832;SDS011;58452;59.418;17.962;2022-10-31T00:48:00;6.82;;;3.03;;
70832;SDS011;58452;59.418;17.962;2022-10-31T00:50:25;5.25;;;3.00;;
70832;SDS011;58452;59.418;17.962;2022-10-31T00:52:51;8.80;;;3.03;;
70832;SDS011;58452;59.418;17.962;2022-10-31T00:55:16;4.43;;;3.13;;
70832;SDS011;58452;59.418;17.962;2022-10-31T00:57:41;5.50;;;2.72;;
70832;SDS011;58452;59.418;17.962;2022-10-31T01:00:07;6.32;;;2.70;;
70832;SDS011;58452;59.418;17.962;2022-10-31T01:02:33;6.40;;;3.30;;
70832;SDS011;58452;59.418;17.962;2022-10-31T01:04:58;8.27;;;3.15;;
70832;SDS011;58452;59.418;17.962;2022-10-31T01:07:23;5.70;;;2.60;;
70832;SDS011;58452;59.418;17.962;2022-10-31T01:09:49;6.10;;;2.75;;
70832;SDS011;58452;59.418;17.962;2022-10-31T01:12:14;5.65;;;2.97;;
70832;SDS011;58452;59.418;17.962;2022-10-31T01:14:46;8.18;;;3.65;;
70832;SDS011;58452;59.418;17.962;2022-10-31T01:17:12;4.05;;;2.65;;
70832;SDS011;58452;59.418;17.962;2022-10-31T01:19:38;6.65;;;3.15;;
70832;SDS011;58452;59.418;17.962;2022-10-31T01:22:03;5.75;;;3.70;;
70832;SDS011;58452;59.418;17.962;2022-10-31T01:24:29;7.10;;;2.80;;
70832;SDS011;58452;59.418;17.962;2022-10-31T01:26:54;4.97;;;2.33;;
70832;SDS011;58452;59.418;17.962;2022-10-31T01:29:20;7.25;;;2.80;;
70832;SDS011;58452;59.418;17.962;2022-10-31T01:31:45;6.90;;;2.90;;
70832;SDS011;58452;59.418;17.962;2022-10-31T01:34:12;5.50;;;2.85;;
70832;SDS011;58452;59.418;17.962;2022-10-31T01:36:39;5.43;;;2.65;;
70832;SDS011;58452;59.418;17.962;2022-10-31T01:39:06;8.23;;;3.00;;
70832;SDS011;58452;59.418;17.962;2022-10-31T01:41:35;7.68;;;3.05;;
70832;SDS011;58452;59.418;17.962;2022-10-31T01:49:24;7.40;;;2.83;;
70832;SDS011;58452;59.418;17.962;2022-10-31T01:51:54;9.23;;;3.60;;
70832;SDS011;58452;59.418;17.962;2022-10-31T01:54:25;6.53;;;3.55;;
70832;SDS011;58452;59.418;17.962;2022-10-31T01:56:56;5.75;;;2.50;;
70832;SDS011;58452;59.418;17.962;2022-10-31T01:59:23;6.93;;;2.67;;
70832;SDS011;58452;59.418;17.962;2022-10-31T02:01:52;9.10;;;3.22;;
70832;SDS011;58452;59.418;17.962;2022-10-31T02:04:18;3.55;;;2.63;;
70832;SDS011;58452;59.418;17.962;2022-10-31T02:06:47;10.85;;;4.72;;
70832;SDS011;58452;59.418;17.962;2022-10-31T02:09:18;6.63;;;2.42;;
70832;SDS011;58452;59.418;17.962;2022-10-31T02:11:48;5.68;;;2.70;;
70832;SDS011;58452;59.418;17.962;2022-10-31T02:14:17;5.68;;;3.17;;
70832;SDS011;58452;59.418;17.962;2022-10-31T02:16:43;6.22;;;3.97;;
70832;SDS011;58452;59.418;17.962;2022-10-31T02:19:08;6.03;;;3.35;;
70832;SDS011;58452;59.418;17.962;2022-10-31T02:21:43;6.50;;;3.13;;
70832;SDS011;58452;59.418;17.962;2022-10-31T02:29:58;4.00;;;2.63;;
70832;SDS011;58452;59.418;17.962;2022-10-31T02:32:33;4.45;;;2.60;;
70832;SDS011;58452;59.418;17.962;2022-10-31T02:37:51;6.47;;;2.78;;
70832;SDS011;58452;59.418;17.962;2022-10-31T02:43:09;7.03;;;2.70;;
70832;SDS011;58452;59.418;17.962;2022-10-31T02:45:44;4.38;;;2.72;;
70832;SDS011;58452;59.418;17.962;2022-10-31T02:48:21;4.75;;;2.53;;
70832;SDS011;58452;59.418;17.962;2022-10-31T02:51:00;4.20;;;2.88;;
70832;SDS011;58452;59.418;17.962;2022-10-31T02:53:34;10.60;;;3.08;;
70832;SDS011;58452;59.418;17.962;2022-10-31T02:58:44;4.57;;;2.35;;
70832;SDS011;58452;59.418;17.962;2022-10-31T03:10:15;3.90;;;2.85;;
70832;SDS011;58452;59.418;17.962;2022-10-31T03:13:07;4.60;;;2.70;;
70832;SDS011;58452;59.418;17.962;2022-10-31T03:15:45;8.25;;;2.80;;
70832;SDS011;58452;59.418;17.962;2022-10-31T03:18:29;4.40;;;2.53;;
70832;SDS011;58452;59.418;17.962;2022-10-31T03:21:00;3.85;;;2.83;;
70832;SDS011;58452;59.418;17.962;2022-10-31T03:23:30;8.55;;;3.42;;
70832;SDS011;58452;59.418;17.962;2022-10-31T03:26:00;5.32;;;2.78;;
70832;SDS011;58452;59.418;17.962;2022-10-31T03:28:29;4.72;;;2.97;;
70832;SDS011;58452;59.418;17.962;2022-10-31T03:31:01;6.28;;;2.72;;
70832;SDS011;58452;59.418;17.962;2022-10-31T03:33:30;8.82;;;;;
70832;SDS011;58452;59.418;17.962;2022-10-31T03:36:04;3.55;;;2.53;;
70832;SDS011;58452;59.418;17.962;2022-10-31T03:38:33;4.95;;;2.90;;
70832;SDS011;58452;59.418;17.962;2022-10-31T03:41:01;4.60;;;2.72;;
70832;SDS011;58452;59.418;17.962;2022-10-31T03:43:30;5.03;;;2.78;;
70832;SDS011;58452;59.418;17.962;2022-10-31T03:46:02;4.90;;;2.85;;
70832;SDS011;58452;59.418;17.962;2022-10-31T03:48:29;6.20;;;2.83;;
70832;SDS011;58452;59.418;17.962;2022-10-31T03:53:51;6.75;;;3.17;;
70832;SDS011;58452;59.418;17.962;2022-10-31T03:58:58;5.18;;;2.42;;
70832;SDS011;58452;59.418;17.962;2022-10-31T04:01:27;7.05;;;3.90;;
70832;SDS011;58452;59.418;17.962;2022-10-31T04:03:57;8.77;;;5.22;;
70832;SDS011;58452;59.418;17.962;2022-10-31T04:06:23;5.47;;;3.08;;
70832;SDS011;58452;59.418;17.962;2022-10-31T04:08:51;9.38;;;3.75;;
70832;SDS011;58452;59.418;17.962;2022-10-31T04:11:21;7.63;;;3.88;;
70832;SDS011;58452;59.418;17.962;2022-10-31T04:13:51;6.03;;;3.47;;
70832;SDS011;58452;59.418;17.962;2022-10-31T04:16:17;6.95;;;3.20;;
70832;SDS011;58452;59.418;17.962;2022-10-31T04:18:44;8.35;;;3.78;;
70832;SDS011;58452;59.418;17.962;2022-10-31T04:21:09;5.40;;;2.97;;
70832;SDS011;58452;59.418;17.962;2022-10-31T04:23:35;5.63;;;3.47;;
70832;SDS011;58452;59.418;17.962;2022-10-31T04:26:01;9.60;;;3.42;;
70832;SDS011;58452;59.418;17.962;2022-10-31T04:28:27;7.60;;;3.78;;
70832;SDS011;58452;59.418;17.962;2022-10-31T04:30:53;11.70;;;4.05;;
70832;SDS011;58452;59.418;17.962;2022-10-31T04:33:18;19.60;;;4.47;;
70832;SDS011;58452;59.418;17.962;2022-10-31T04:35:44;5.53;;;3.28;;
70832;SDS011;58452;59.418;17.962;2022-10-31T04:38:09;7.78;;;4.00;;
70832;SDS011;58452;59.418;17.962;2022-10-31T04:40:35;8.63;;;4.05;;
70832;SDS011;58452;59.418;17.962;2022-10-31T04:43:00;5.53;;;3.40;;
70832;SDS011;58452;59.418;17.962;2022-10-31T04:45:26;11.13;;;3.97;;
70832;SDS011;58452;59.418;17.962;2022-10-31T04:47:51;9.10;;;5.15;;
70832;SDS011;58452;59.418;17.962;2022-10-31T04:50:16;7.68;;;3.85;;
70832;SDS011;58452;59.418;17.962;2022-10-31T04:52:42;12.60;;;4.47;;
70832;SDS011;58452;59.418;17.962;2022-10-31T04:55:09;11.68;;;3.85;;
70832;SDS011;58452;59.418;17.962;2022-10-31T04:57:45;6.35;;;3.75;;
70832;SDS011;58452;59.418;17.962;2022-10-31T05:00:13;6.35;;;3.45;;
70832;SDS011;58452;59.418;17.962;2022-10-31T05:02:44;6.57;;;2.92;;
70832;SDS011;58452;59.418;17.962;2022-10-31T05:05:12;5.53;;;3.30;;
70832;SDS011;58452;59.418;17.962;2022-10-31T05:07:42;8.65;;;3.63;;
70832;SDS011;58452;59.418;17.962;2022-10-31T05:10:13;5.40;;;3.55;;
70832;SDS011;58452;59.418;17.962;2022-10-31T05:12:51;9.18;;;3.90;;
70832;SDS011;58452;59.418;17.962;2022-10-31T05:15:21;7.38;;;4.35;;
70832;SDS011;58452;59.418;17.962;2022-10-31T05:17:48;9.18;;;4.07;;
70832;SDS011;58452;59.418;17.962;2022-10-31T05:20:14;5.78;;;4.05;;
70832;SDS011;58452;59.418;17.962;2022-10-31T05:22:47;6.95;;;3.88;;
70832;SDS011;58452;59.418;17.962;2022-10-31T05:25:15;10.00;;;4.90;;
70832;SDS011;58452;59.418;17.962;2022-10-31T05:27:41;11.10;;;5.88;;
70832;SDS011;58452;59.418;17.962;2022-10-31T05:30:09;13.30;;;5.00;;
70832;SDS011;58452;59.418;17.962;2022-10-31T05:32:39;12.77;;;5.22;;
70832;SDS011;58452;59.418;17.962;2022-10-31T05:35:06;12.75;;;5.82;;
70832;SDS011;58452;59.418;17.962;2022-10-31T05:37:34;13.35;;;5.80;;
70832;SDS011;58452;59.418;17.962;2022-10-31T05:40:03;15.85;;;7.25;;
70832;SDS011;58452;59.418;17.962;2022-10-31T05:42:30;22.40;;;7.10;;
70832;SDS011;58452;59.418;17.962;2022-10-31T05:44:55;22.15;;;7.53;;
70832;SDS011;58452;59.418;17.962;2022-10-31T05:47:20;20.67;;;6.55;;
70832;SDS011;58452;59.418;17.962;2022-10-31T05:49:46;14.25;;;6.85;;
70832;SDS011;58452;59.418;17.962;2022-10-31T05:52:11;27.27;;;7.20;;
70832;SDS011;58452;59.418;17.962;2022-10-31T05:54:37;15.43;;;6.47;;
70832;SDS011;58452;59.418;17.962;2022-10-31T05:57:02;13.35;;;6.55;;
70832;SDS011;58452;59.418;17.962;2022-10-31T05:59:27;36.00;;;8.32;;
70832;SDS011;58452;59.418;17.962;2022-10-31T06:01:53;19.38;;;7.32;;
70832;SDS011;58452;59.418;17.962;2022-10-31T06:04:18;16.60;;;7.05;;
70832;SDS011;58452;59.418;17.962;2022-10-31T06:06:43;30.40;;;8.73;;
70832;SDS011;58452;59.418;17.962;2022-10-31T06:09:09;20.48;;;8.27;;
70832;SDS011;58452;59.418;17.962;2022-10-31T06:11:34;14.50;;;7.47;;
70832;SDS011;58452;59.418;17.962;2022-10-31T06:14:00;18.65;;;8.15;;
70832;SDS011;58452;59.418;17.962;2022-10-31T06:16:25;20.60;;;7.80;;
70832;SDS011;58452;59.418;17.962;2022-10-31T06:18:50;16.25;;;8.27;;
70832;SDS011;58452;59.418;17.962;2022-10-31T06:21:17;16.25;;;8.32;;
70832;SDS011;58452;59.418;17.962;2022-10-31T06:23:42;21.50;;;8.68;;
70832;SDS011;58452;59.418;17.962;2022-10-31T06:26:07;27.90;;;9.63;;
70832;SDS011;58452;59.418;17.962;2022-10-31T06:28:33;43.53;;;8.90;;
70832;SDS011;58452;59.418;17.962;2022-10-31T06:30:58;21.63;;;8.05;;
70832;SDS011;58452;59.418;17.962;2022-10-31T06:33:24;27.90;;;9.48;;
70832;SDS011;58452;59.418;17.962;2022-10-31T06:35:49;49.78;;;11.57;;
70832;SDS011;58452;59.418;17.962;2022-10-31T06:38:14;28.25;;;10.27;;
70832;SDS011;58452;59.418;17.962;2022-10-31T06:40:40;31.13;;;9.98;;
70832;SDS011;58452;59.418;17.962;2022-10-31T06:43:05;34.75;;;9.07;;
70832;SDS011;58452;59.418;17.962;2022-10-31T06:45:30;40.15;;;10.02;;
70832;SDS011;58452;59.418;17.962;2022-10-31T06:47:56;50.55;;;11.15;;
70832;SDS011;58452;59.418;17.962;2022-10-31T06:50:22;18.85;;;8.35;;
70832;SDS011;58452;59.418;17.962;2022-10-31T06:52:55;28.35;;;9.45;;
70832;SDS011;58452;59.418;17.962;2022-10-31T06:55:21;25.48;;;9.07;;
70832;SDS011;58452;59.418;17.962;2022-10-31T06:57:54;20.33;;;8.45;;
70832;SDS011;58452;59.418;17.962;2022-10-31T07:00:22;52.15;;;9.80;;
70832;SDS011;58452;59.418;17.962;2022-10-31T07:05:24;15.25;;;7.82;;
70832;SDS011;58452;59.418;17.962;2022-10-31T07:07:54;16.95;;;8.10;;
70832;SDS011;58452;59.418;17.962;2022-10-31T07:10:21;33.33;;;8.82;;
70832;SDS011;58452;59.418;17.962;2022-10-31T07:12:48;15.73;;;8.40;;
70832;SDS011;58452;59.418;17.962;2022-10-31T07:15:13;18.13;;;7.80;;
70832;SDS011;58452;59.418;17.962;2022-10-31T07:17:38;43.80;;;9.48;;
70832;SDS011;58452;59.418;17.962;2022-10-31T07:20:04;16.67;;;7.55;;
70832;SDS011;58452;59.418;17.962;2022-10-31T07:22:35;45.15;;;8.93;;
70832;SDS011;58452;59.418;17.962;2022-10-31T07:25:01;34.00;;;9.15;;
70832;SDS011;58452;59.418;17.962;2022-10-31T07:27:26;54.10;;;14.65;;
70832;SDS011;58452;59.418;17.962;2022-10-31T07:29:52;36.55;;;10.60;;
70832;SDS011;58452;59.418;17.962;2022-10-31T07:32:17;45.15;;;13.02;;
70832;SDS011;58452;59.418;17.962;2022-10-31T07:34:43;34.15;;;10.15;;
70832;SDS011;58452;59.418;17.962;2022-10-31T07:37:08;22.38;;;8.77;;
70832;SDS011;58452;59.418;17.962;2022-10-31T07:39:33;27.27;;;11.13;;
70832;SDS011;58452;59.418;17.962;2022-10-31T07:41:59;29.52;;;9.82;;
70832;SDS011;58452;59.418;17.962;2022-10-31T07:44:24;37.20;;;10.25;;
70832;SDS011;58452;59.418;17.962;2022-10-31T07:46:49;27.02;;;11.05;;
70832;SDS011;58452;59.418;17.962;2022-10-31T07:49:15;40.58;;;11.18;;
70832;SDS011;58452;59.418;17.962;2022-10-31T07:51:40;31.52;;;10.65;;
70832;SDS011;58452;59.418;17.962;2022-10-31T07:54:05;33.47;;;11.20;;
70832;SDS011;58452;59.418;17.962;2022-10-31T07:56:31;41.22;;;10.55;;
70832;SDS011;58452;59.418;17.962;2022-10-31T07:58:56;33.60;;;11.32;;
70832;SDS011;58452;59.418;17.962;2022-10-31T08:01:22;42.08;;;12.90;;
70832;SDS011;58452;59.418;17.962;2022-10-31T08:03:47;25.20;;;11.25;;
70832;SDS011;58452;59.418;17.962;2022-10-31T08:06:12;33.97;;;11.98;;
70832;SDS011;58452;59.418;17.962;2022-10-31T08:08:38;32.20;;;11.20;;
70832;SDS011;58452;59.418;17.962;2022-10-31T08:11:03;38.33;;;12.05;;
70832;SDS011;58452;59.418;17.962;2022-10-31T08:13:28;32.15;;;12.35;;
70832;SDS011;58452;59.418;17.962;2022-10-31T08:15:54;42.60;;;13.32;;
70832;SDS011;58452;59.418;17.962;2022-10-31T08:18:20;32.70;;;12.40;;
70832;SDS011;58452;59.418;17.962;2022-10-31T08:20:48;43.60;;;14.43;;
70832;SDS011;58452;59.418;17.962;2022-10-31T08:23:14;41.35;;;13.68;;
70832;SDS011;58452;59.418;17.962;2022-10-31T08:25:41;35.22;;;13.23;;
70832;SDS011;58452;59.418;17.962;2022-10-31T08:28:08;43.20;;;14.20;;
70832;SDS011;58452;59.418;17.962;2022-10-31T08:30:35;35.15;;;13.02;;
70832;SDS011;58452;59.418;17.962;2022-10-31T08:33:09;46.65;;;13.85;;
70832;SDS011;58452;59.418;17.962;2022-10-31T08:35:35;35.10;;;13.68;;
70832;SDS011;58452;59.418;17.962;2022-10-31T08:38:01;40.50;;;14.88;;
70832;SDS011;58452;59.418;17.962;2022-10-31T08:40:27;39.33;;;14.10;;
70832;SDS011;58452;59.418;17.962;2022-10-31T08:43:01;38.97;;;13.10;;
70832;SDS011;58452;59.418;17.962;2022-10-31T08:45:29;60.38;;;15.85;;
70832;SDS011;58452;59.418;17.962;2022-10-31T08:47:57;33.60;;;12.40;;
70832;SDS011;58452;59.418;17.962;2022-10-31T08:50:24;58.83;;;16.08;;
70832;SDS011;58452;59.418;17.962;2022-10-31T08:52:49;35.22;;;13.10;;
70832;SDS011;58452;59.418;17.962;2022-10-31T08:55:15;35.35;;;12.95;;
70832;SDS011;58452;59.418;17.962;2022-10-31T08:57:41;37.33;;;13.00;;
70832;SDS011;58452;59.418;17.962;2022-10-31T09:00:06;37.47;;;13.07;;
70832;SDS011;58452;59.418;17.962;2022-10-31T09:02:32;42.20;;;13.15;;
70832;SDS011;58452;59.418;17.962;2022-10-31T09:04:58;34.72;;;12.25;;
70832;SDS011;58452;59.418;17.962;2022-10-31T09:07:23;47.13;;;14.90;;
70832;SDS011;58452;59.418;17.962;2022-10-31T09:09:49;37.15;;;14.07;;
70832;SDS011;58452;59.418;17.962;2022-10-31T09:12:14;46.85;;;15.25;;
70832;SDS011;58452;59.418;17.962;2022-10-31T09:14:40;46.40;;;16.77;;
70832;SDS011;58452;59.418;17.962;2022-10-31T09:17:05;45.70;;;16.08;;
70832;SDS011;58452;59.418;17.962;2022-10-31T09:19:30;32.22;;;15.57;;
70832;SDS011;58452;59.418;17.962;2022-10-31T09:21:56;45.55;;;16.85;;
70832;SDS011;58452;59.418;17.962;2022-10-31T09:24:21;42.65;;;17.15;;
70832;SDS011;58452;59.418;17.962;2022-10-31T09:26:47;43.38;;;16.00;;
70832;SDS011;58452;59.418;17.962;2022-10-31T09:29:12;43.13;;;17.05;;
70832;SDS011;58452;59.418;17.962;2022-10-31T09:31:37;42.85;;;17.50;;
70832;SDS011;58452;59.418;17.962;2022-10-31T09:34:03;36.40;;;15.73;;
70832;SDS011;58452;59.418;17.962;2022-10-31T09:36:28;34.75;;;16.73;;
70832;SDS011;58452;59.418;17.962;2022-10-31T09:38:54;37.95;;;16.38;;
70832;SDS011;58452;59.418;17.962;2022-10-31T09:41:32;36.35;;;15.48;;
70832;SDS011;58452;59.418;17.962;2022-10-31T09:52:35;29.33;;;14.32;;
70832;SDS011;58452;59.418;17.962;2022-10-31T09:55:16;39.78;;;16.52;;
70832;SDS011;58452;59.418;17.962;2022-10-31T09:57:46;34.38;;;15.75;;
70832;SDS011;58452;59.418;17.962;2022-10-31T10:00:19;29.40;;;16.02;;
70832;SDS011;58452;59.418;17.962;2022-10-31T10:08:40;26.80;;;13.68;;
70832;SDS011;58452;59.418;17.962;2022-10-31T10:22:30;28.00;;;14.45;;
70832;SDS011;58452;59.418;17.962;2022-10-31T10:30:22;22.45;;;13.15;;
70832;SDS011;58452;59.418;17.962;2022-10-31T10:32:56;29.13;;;15.20;;
70832;SDS011;58452;59.418;17.962;2022-10-31T10:35:26;30.50;;;15.65;;
70832;SDS011;58452;59.418;17.962;2022-10-31T10:40:42;25.38;;;14.43;;
70832;SDS011;58452;59.418;17.962;2022-10-31T10:45:51;23.15;;;14.35;;
70832;SDS011;58452;59.418;17.962;2022-10-31T10:54:13;23.85;;;14.55;;
70832;SDS011;58452;59.418;17.962;2022-10-31T10:59:09;23.40;;;12.23;;
70832;SDS011;58452;59.418;17.962;2022-10-31T11:01:38;22.02;;;11.48;;
70832;SDS011;58452;59.418;17.962;2022-10-31T11:06:59;24.85;;;12.85;;
70832;SDS011;58452;59.418;17.962;2022-10-31T11:09:30;21.75;;;12.27;;
70832;SDS011;58452;59.418;17.962;2022-10-31T11:11:56;24.65;;;12.02;;
70832;SDS011;58452;59.418;17.962;2022-10-31T11:14:23;20.83;;;11.82;;
70832;SDS011;58452;59.418;17.962;2022-10-31T11:17:06;19.20;;;11.27;;
70832;SDS011;58452;59.418;17.962;2022-10-31T11:19:34;15.32;;;11.05;;
70832;SDS011;58452;59.418;17.962;2022-10-31T11:22:07;19.23;;;12.55;;
70832;SDS011;58452;59.418;17.962;2022-10-31T11:24:40;16.85;;;11.35;;
70832;SDS011;58452;59.418;17.962;2022-10-31T11:27:11;16.58;;;10.68;;
70832;SDS011;58452;59.418;17.962;2022-10-31T11:29:38;22.58;;;11.38;;
70832;SDS011;58452;59.418;17.962;2022-10-31T11:32:03;19.85;;;11.70;;
70832;SDS011;58452;59.418;17.962;2022-10-31T11:34:34;16.48;;;11.57;;
70832;SDS011;58452;59.418;17.962;2022-10-31T11:37:08;17.92;;;11.73;;
70832;SDS011;58452;59.418;17.962;2022-10-31T11:39:41;17.83;;;10.68;;
70832;SDS011;58452;59.418;17.962;2022-10-31T11:42:09;19.58;;;11.13;;
70832;SDS011;58452;59.418;17.962;2022-10-31T11:44:35;16.60;;;10.73;;
70832;SDS011;58452;59.418;17.962;2022-10-31T11:47:01;18.10;;;11.75;;
70832;SDS011;58452;59.418;17.962;2022-10-31T11:49:36;14.80;;;10.13;;
70832;SDS011;58452;59.418;17.962;2022-10-31T11:52:06;13.82;;;9.50;;
70832;SDS011;58452;59.418;17.962;2022-10-31T11:54:44;14.57;;;9.20;;
70832;SDS011;58452;59.418;17.962;2022-10-31T11:57:32;13.55;;;8.93;;
70832;SDS011;58452;59.418;17.962;2022-10-31T12:00:19;12.98;;;9.15;;
70832;SDS011;58452;59.418;17.962;2022-10-31T12:02:48;14.43;;;9.02;;
70832;SDS011;58452;59.418;17.962;2022-10-31T12:05:18;12.43;;;9.02;;
70832;SDS011;58452;59.418;17.962;2022-10-31T12:07:47;13.43;;;8.00;;
70832;SDS011;58452;59.418;17.962;2022-10-31T12:10:14;11.48;;;7.85;;
70832;SDS011;58452;59.418;17.962;2022-10-31T12:12:42;15.00;;;8.50;;
70832;SDS011;58452;59.418;17.962;2022-10-31T12:15:33;13.98;;;7.97;;
70832;SDS011;58452;59.418;17.962;2022-10-31T12:26:16;10.25;;;7.28;;
70832;SDS011;58452;59.418;17.962;2022-10-31T12:31:39;15.35;;;8.13;;
70832;SDS011;58452;59.418;17.962;2022-10-31T12:34:21;13.88;;;7.43;;
70832;SDS011;58452;59.418;17.962;2022-10-31T12:37:09;13.88;;;8.68;;
70832;SDS011;58452;59.418;17.962;2022-10-31T12:39:48;12.98;;;7.50;;
70832;SDS011;58452;59.418;17.962;2022-10-31T12:44:55;13.02;;;9.20;;
70832;SDS011;58452;59.418;17.962;2022-10-31T13:00:58;10.60;;;7.40;;
70832;SDS011;58452;59.418;17.962;2022-10-31T13:03:38;14.43;;;7.47;;
70832;SDS011;58452;59.418;17.962;2022-10-31T13:06:08;10.52;;;7.10;;
70832;SDS011;58452;59.418;17.962;2022-10-31T13:08:45;15.07;;;8.18;;
70832;SDS011;58452;59.418;17.962;2022-10-31T13:11:50;13.50;;;8.02;;
70832;SDS011;58452;59.418;17.962;2022-10-31T13:14:11;17.02;;;8.05;;
70832;SDS011;58452;59.418;17.962;2022-10-31T13:16:47;12.05;;;6.22;;
70832;SDS011;58452;59.418;17.962;2022-10-31T13:19:17;12.48;;;7.00;;
70832;SDS011;58452;59.418;17.962;2022-10-31T13:24:40;9.48;;;6.15;;
70832;SDS011;58452;59.418;17.962;2022-10-31T13:27:13;14.65;;;6.18;;
70832;SDS011;58452;59.418;17.962;2022-10-31T13:32:53;15.82;;;7.30;;
70832;SDS011;58452;59.418;17.962;2022-10-31T13:35:31;18.33;;;6.38;;
70832;SDS011;58452;59.418;17.962;2022-10-31T13:48:58;13.00;;;5.57;;
70832;SDS011;58452;59.418;17.962;2022-10-31T13:51:28;13.70;;;5.93;;
70832;SDS011;58452;59.418;17.962;2022-10-31T13:56:21;13.13;;;5.88;;
70832;SDS011;58452;59.418;17.962;2022-10-31T13:59:23;14.02;;;6.50;;
70832;SDS011;58452;59.418;17.962;2022-10-31T14:01:48;12.20;;;6.18;;
70832;SDS011;58452;59.418;17.962;2022-10-31T14:04:18;11.93;;;6.97;;
70832;SDS011;58452;59.418;17.962;2022-10-31T14:12:12;14.00;;;6.80;;
70832;SDS011;58452;59.418;17.962;2022-10-31T14:15:02;11.68;;;6.63;;
70832;SDS011;58452;59.418;17.962;2022-10-31T14:17:33;7.47;;;5.43;;
70832;SDS011;58452;59.418;17.962;2022-10-31T14:22:37;12.15;;;5.78;;
70832;SDS011;58452;59.418;17.962;2022-10-31T14:27:53;9.05;;;5.90;;
70832;SDS011;58452;59.418;17.962;2022-10-31T14:30:22;11.63;;;6.28;;
70832;SDS011;58452;59.418;17.962;2022-10-31T14:32:50;11.68;;;6.18;;
70832;SDS011;58452;59.418;17.962;2022-10-31T14:35:18;8.77;;;6.28;;
70832;SDS011;58452;59.418;17.962;2022-10-31T14:46:06;7.97;;;5.85;;
70832;SDS011;58452;59.418;17.962;2022-10-31T14:51:39;11.95;;;5.53;;
70832;SDS011;58452;59.418;17.962;2022-10-31T14:54:10;14.15;;;5.63;;
70832;SDS011;58452;59.418;17.962;2022-10-31T14:56:43;9.73;;;6.68;;
70832;SDS011;58452;59.418;17.962;2022-10-31T14:59:14;15.00;;;6.30;;
70832;SDS011;58452;59.418;17.962;2022-10-31T15:01:55;10.45;;;5.95;;
70832;SDS011;58452;59.418;17.962;2022-10-31T15:04:24;11.70;;;6.05;;
70832;SDS011;58452;59.418;17.962;2022-10-31T15:07:00;8.02;;;5.50;;
70832;SDS011;58452;59.418;17.962;2022-10-31T15:09:32;9.48;;;5.20;;
70832;SDS011;58452;59.418;17.962;2022-10-31T15:11:59;9.10;;;5.45;;
70832;SDS011;58452;59.418;17.962;2022-10-31T15:14:27;9.88;;;4.95;;
70832;SDS011;58452;59.418;17.962;2022-10-31T15:16:58;11.40;;;6.10;;
70832;SDS011;58452;59.418;17.962;2022-10-31T15:19:27;10.85;;;5.78;;
70832;SDS011;58452;59.418;17.962;2022-10-31T15:21:55;11.52;;;6.70;;
70832;SDS011;58452;59.418;17.962;2022-10-31T15:24:23;9.77;;;6.13;;
70832;SDS011;58452;59.418;17.962;2022-10-31T15:26:54;6.80;;;4.80;;
70832;SDS011;58452;59.418;17.962;2022-10-31T15:29:23;10.55;;;5.53;;
70832;SDS011;58452;59.418;17.962;2022-10-31T15:34:19;9.98;;;5.13;;
70832;SDS011;58452;59.418;17.962;2022-10-31T15:36:48;11.43;;;6.00;;
70832;SDS011;58452;59.418;17.962;2022-10-31T15:39:15;21.05;;;5.55;;
70832;SDS011;58452;59.418;17.962;2022-10-31T15:41:51;8.50;;;5.65;;
70832;SDS011;58452;59.418;17.962;2022-10-31T15:44:35;8.95;;;5.78;;
70832;SDS011;58452;59.418;17.962;2022-10-31T15:47:06;11.07;;;5.82;;
70832;SDS011;58452;59.418;17.962;2022-10-31T15:49:41;9.50;;;5.60;;
70832;SDS011;58452;59.418;17.962;2022-10-31T15:54:58;10.13;;;5.65;;
70832;SDS011;58452;59.418;17.962;2022-10-31T15:57:26;9.13;;;5.20;;
70832;SDS011;58452;59.418;17.962;2022-10-31T15:59:52;8.18;;;5.05;;
70832;SDS011;58452;59.418;17.962;2022-10-31T16:02:22;6.90;;;5.05;;
70832;SDS011;58452;59.418;17.962;2022-10-31T16:07:22;10.73;;;5.13;;
70832;SDS011;58452;59.418;17.962;2022-10-31T16:10:23;5.13;;;4.22;;
70832;SDS011;58452;59.418;17.962;2022-10-31T16:12:48;8.07;;;4.78;;
70832;SDS011;58452;59.418;17.962;2022-10-31T16:15:15;9.15;;;5.18;;
70832;SDS011;58452;59.418;17.962;2022-10-31T16:17:43;9.13;;;4.22;;
70832;SDS011;58452;59.418;17.962;2022-10-31T16:23:18;10.50;;;5.40;;
70832;SDS011;58452;59.418;17.962;2022-10-31T16:25:45;10.93;;;5.07;;
70832;SDS011;58452;59.418;17.962;2022-10-31T16:28:19;8.82;;;5.03;;
70832;SDS011;58452;59.418;17.962;2022-10-31T16:30:50;14.85;;;5.88;;
70832;SDS011;58452;59.418;17.962;2022-10-31T16:35:51;10.48;;;5.25;;
70832;SDS011;58452;59.418;17.962;2022-10-31T16:38:17;9.82;;;5.03;;
70832;SDS011;58452;59.418;17.962;2022-10-31T16:40:42;11.10;;;5.63;;
70832;SDS011;58452;59.418;17.962;2022-10-31T16:43:10;9.02;;;5.53;;
70832;SDS011;58452;59.418;17.962;2022-10-31T16:45:42;7.82;;;4.97;;
70832;SDS011;58452;59.418;17.962;2022-10-31T16:48:16;13.45;;;5.00;;
70832;SDS011;58452;59.418;17.962;2022-10-31T16:50:46;10.02;;;5.38;;
70832;SDS011;58452;59.418;17.962;2022-10-31T16:53:13;18.58;;;5.50;;
70832;SDS011;58452;59.418;17.962;2022-10-31T16:58:21;15.25;;;5.80;;
70832;SDS011;58452;59.418;17.962;2022-10-31T17:00:49;14.50;;;6.45;;
70832;SDS011;58452;59.418;17.962;2022-10-31T17:03:15;11.13;;;5.40;;
70832;SDS011;58452;59.418;17.962;2022-10-31T17:05:40;10.45;;;5.40;;
70832;SDS011;58452;59.418;17.962;2022-10-31T17:08:05;12.18;;;5.75;;
70832;SDS011;58452;59.418;17.962;2022-10-31T17:10:31;11.45;;;5.40;;
70832;SDS011;58452;59.418;17.962;2022-10-31T17:12:57;9.02;;;4.97;;
70832;SDS011;58452;59.418;17.962;2022-10-31T17:15:24;10.30;;;5.22;;
70832;SDS011;58452;59.418;17.962;2022-10-31T17:17:52;13.00;;;4.80;;
70832;SDS011;58452;59.418;17.962;2022-10-31T17:20:25;9.20;;;5.32;;
70832;SDS011;58452;59.418;17.962;2022-10-31T17:22:52;9.85;;;5.35;;